Time;durP1;ratioP1;P1;durP2;ratioP2;P2;SDS_P1;SDS_P2;PMS_P1;PMS_P2;Temp;Humidity;BMP_temperature;BMP_pressure;BME280_temperature;BME280_humidity;BME280_pressure;Samples;Min_cycle;Max_cycle;Signal;HPM_P1;HPM_P2
2020/12/08 00:01:38;;;;;;;21.27;12.00;;;0.40;99.90;;;0.97;94.71;99334.72;4975482;28;20069;-78
2020/12/08 00:04:04;;;;;;;20.23;12.23;;;0.40;99.90;;;0.99;94.83;99346.22;4974258;28;20074;-78
2020/12/08 00:06:30;;;;;;;19.70;12.10;;;0.30;99.90;;;0.96;94.91;99346.88;4975948;28;20031;-79
2020/12/08 00:08:56;;;;;;;21.92;13.32;;;0.30;99.90;;;0.92;95.11;99341.22;4975784;28;20030;-80
2020/12/08 00:11:22;;;;;;;20.05;11.57;;;0.30;99.90;;;0.95;95.08;99342.50;4975607;28;20035;-79
2020/12/08 00:13:48;;;;;;;19.55;11.43;;;0.30;99.90;;;0.74;94.17;99347.06;4972619;28;20038;-78
2020/12/08 00:16:14;;;;;;;22.98;12.43;;;0.10;99.90;;;0.68;94.78;99353.84;4972382;28;20047;-79
2020/12/08 00:18:40;;;;;;;21.33;11.93;;;0.00;99.90;;;0.60;94.66;99349.16;4973163;28;20062;-78
2020/12/08 00:21:07;;;;;;;20.35;11.18;;;0.00;99.90;;;0.50;94.90;99342.88;4972342;28;20403;-80
2020/12/08 00:23:33;;;;;;;21.13;11.95;;;-0.10;99.90;;;0.57;95.29;99344.31;4977080;28;20031;-79
2020/12/08 00:25:59;;;;;;;20.40;11.30;;;0.00;99.90;;;0.60;95.20;99340.91;4977002;28;20022;-77
2020/12/08 00:28:25;;;;;;;29.63;12.00;;;0.00;99.90;;;0.71;95.67;99342.19;4977116;28;20061;-78
2020/12/08 00:30:51;;;;;;;21.67;10.73;;;0.00;99.90;;;0.81;95.68;99345.41;4961874;28;20022;-78
2020/12/08 00:33:18;;;;;;;25.67;14.20;;;0.10;99.90;;;0.90;96.14;99332.47;4979827;28;20034;-78
2020/12/08 00:35:44;;;;;;;27.20;14.73;;;0.20;99.90;;;1.04;96.80;99340.53;4979698;28;20031;-78
2020/12/08 00:38:10;;;;;;;29.05;14.52;;;0.40;99.90;;;1.17;97.14;99339.53;4980179;28;20038;-80
2020/12/08 00:40:36;;;;;;;29.50;16.05;;;0.50;99.90;;;1.41;97.38;99342.53;4979119;28;20050;-79
2020/12/08 00:43:02;;;;;;;28.25;15.27;;;0.70;99.90;;;1.48;96.81;99325.50;4979607;28;20034;-81
2020/12/08 00:45:33;;;;;;;32.25;16.10;;;0.80;99.90;;;1.70;97.09;99333.53;4987749;28;20027;-79
2020/12/08 00:48:01;;;;;;;28.98;15.77;;;1.00;99.90;;;1.80;96.79;99337.84;4994163;28;20015;-81
2020/12/08 00:50:27;;;;;;;30.20;16.40;;;1.20;99.90;;;1.90;96.63;99332.75;4995177;28;20133;-79
2020/12/08 00:52:53;;;;;;;25.38;14.38;;;1.20;99.90;;;1.96;96.42;99328.66;4976465;28;20034;-78
2020/12/08 00:55:19;;;;;;;24.00;13.48;;;1.30;99.90;;;1.99;95.92;99335.47;4977443;28;20442;-78
2020/12/08 00:57:45;;;;;;;24.00;14.32;;;1.30;99.90;;;1.97;95.82;99334.97;4976979;28;20624;-80
2020/12/08 01:00:12;;;;;;;25.88;14.30;;;1.30;99.90;;;2.00;95.67;99324.09;4976615;28;20042;-78
2020/12/08 01:02:40;;;;;;;24.52;13.10;;;1.40;99.90;;;2.12;95.52;99326.13;4976790;28;20026;-81
2020/12/08 01:05:11;;;;;;;22.70;13.13;;;1.40;99.90;;;2.20;95.31;99324.47;4976510;28;20030;-80
2020/12/08 01:07:41;;;;;;;23.42;12.55;;;1.50;99.90;;;2.22;94.50;99334.00;4976456;28;20407;-80
2020/12/08 01:10:07;;;;;;;20.15;11.25;;;1.50;99.90;;;2.26;94.25;99332.19;4976288;28;20027;-80
2020/12/08 01:12:33;;;;;;;19.67;11.68;;;1.50;99.90;;;2.24;94.02;99328.97;4976701;28;20110;-80
2020/12/08 01:14:59;;;;;;;23.83;12.15;;;1.60;99.90;;;2.26;94.18;99328.63;4976316;28;20507;-81
2020/12/08 01:17:25;;;;;;;19.90;11.68;;;1.60;99.90;;;2.24;93.72;99330.91;4976214;28;20037;-80
2020/12/08 01:19:51;;;;;;;18.55;11.15;;;1.50;99.90;;;2.20;93.83;99325.28;4976548;28;20035;-78
2020/12/08 01:22:23;;;;;;;18.92;10.63;;;1.50;99.90;;;2.20;93.73;99343.75;4985945;23;20446;-80
2020/12/08 01:24:51;;;;;;;16.88;11.27;;;1.50;99.90;;;2.14;93.44;99326.63;5015935;28;20042;-84
2020/12/08 01:27:17;;;;;;;17.42;9.98;;;1.50;99.90;;;2.04;93.39;99327.81;5010620;28;20089;-81
2020/12/08 01:29:43;;;;;;;18.77;10.82;;;1.40;99.90;;;1.90;93.27;99341.00;5021943;28;20037;-79
2020/12/08 01:32:08;;;;;;;17.50;10.85;;;1.30;99.90;;;1.72;92.90;99338.69;5014632;28;20048;-80
2020/12/08 01:34:37;;;;;;;18.08;11.05;;;1.00;99.90;;;1.53;93.30;99336.34;4993919;28;20038;-79
2020/12/08 01:37:08;;;;;;;17.02;11.00;;;0.90;99.90;;;1.45;93.47;99339.91;4995298;28;20029;-79
2020/12/08 01:39:34;;;;;;;19.58;11.57;;;0.80;99.90;;;1.30;93.66;99327.53;4995576;28;20034;-78
2020/12/08 01:42:03;;;;;;;20.80;12.32;;;0.70;99.90;;;1.29;93.70;99331.41;4977114;28;20040;-80
2020/12/08 01:44:29;;;;;;;20.02;11.50;;;0.70;99.90;;;1.26;93.82;99334.81;4994118;28;20043;-80
2020/12/08 01:46:54;;;;;;;18.98;11.27;;;0.60;99.90;;;1.19;93.61;99334.50;4976834;28;20039;-80
2020/12/08 01:49:21;;;;;;;18.13;10.75;;;0.50;99.90;;;1.14;93.71;99340.19;4994417;28;20064;-79
2020/12/08 01:51:47;;;;;;;18.33;11.48;;;0.40;99.90;;;1.10;93.72;99336.47;5009162;28;20038;-80
2020/12/08 01:54:16;;;;;;;19.13;12.13;;;0.40;99.90;;;1.07;93.79;99339.88;5013558;28;20489;-79
2020/12/08 01:56:42;;;;;;;22.23;11.73;;;0.40;99.90;;;0.99;94.15;99335.22;4996180;28;20120;-79
2020/12/08 01:59:19;;;;;;;20.27;11.68;;;0.40;99.90;;;1.00;94.13;99332.13;5013747;28;20113;-79
2020/12/08 02:01:48;;;;;;;21.00;12.13;;;0.40;99.90;;;1.03;94.17;99333.41;5013745;28;20739;-79
2020/12/08 02:04:14;;;;;;;21.00;12.65;;;0.40;99.90;;;1.15;94.17;99347.31;5013696;28;20034;-79
2020/12/08 02:06:40;;;;;;;22.38;12.57;;;0.50;99.90;;;1.14;94.29;99339.38;4996020;28;20030;-79
2020/12/08 02:09:06;;;;;;;20.73;12.13;;;0.50;99.90;;;1.19;94.16;99340.00;5013669;28;20409;-78
2020/12/08 02:11:32;;;;;;;20.52;12.68;;;0.50;99.90;;;1.12;94.55;99328.72;4995432;28;20034;-78
2020/12/08 02:13:58;;;;;;;21.92;11.90;;;0.50;99.90;;;1.10;94.43;99341.16;4995252;28;20026;-78
2020/12/08 02:16:24;;;;;;;24.30;12.52;;;0.40;99.90;;;1.11;94.28;99345.53;5013606;28;20104;-79
2020/12/08 02:18:55;;;;;;;20.55;12.15;;;0.40;99.90;;;1.08;94.34;99340.69;5013359;28;20030;-80
2020/12/08 02:21:32;;;;;;;25.55;14.70;;;0.40;99.90;;;1.08;94.32;99341.50;4995393;28;20034;-78
2020/12/08 02:23:59;;;;;;;19.13;12.65;;;0.40;99.90;;;1.03;94.27;99345.22;5012929;28;20065;-80
2020/12/08 02:26:26;;;;;;;20.27;12.02;;;0.40;99.90;;;0.99;94.35;99343.47;5013795;28;20117;-80
2020/12/08 02:28:53;;;;;;;19.95;11.02;;;0.30;99.90;;;0.93;94.46;99344.78;5012094;28;20030;-78
2020/12/08 02:31:19;;;;;;;16.88;10.30;;;0.30;99.90;;;0.81;94.09;99342.66;5013204;28;20029;-81
2020/12/08 02:33:45;;;;;;;19.58;11.10;;;0.20;99.90;;;0.79;93.88;99339.44;5013106;28;20026;-80
2020/12/08 02:36:12;;;;;;;20.42;11.73;;;0.10;99.90;;;0.77;94.23;99341.69;4996213;28;20040;-78
2020/12/08 02:38:38;;;;;;;19.80;11.93;;;0.10;99.90;;;0.71;94.47;99339.44;5013563;28;20026;-80
2020/12/08 02:41:04;;;;;;;19.80;11.65;;;0.10;99.90;;;0.62;94.21;99342.19;5013140;28;20442;-79
2020/12/08 02:43:31;;;;;;;20.98;12.10;;;0.00;99.90;;;0.50;94.23;99333.81;5012478;28;20065;-79
2020/12/08 02:46:02;;;;;;;23.85;13.05;;;-0.10;99.90;;;0.39;94.39;99329.75;5012470;28;20092;-78
2020/12/08 02:48:28;;;;;;;19.40;11.57;;;-0.10;99.90;;;0.40;94.66;99326.69;4995466;28;20363;-80
2020/12/08 02:50:54;;;;;;;18.98;11.23;;;-0.20;99.90;;;0.32;94.67;99326.72;5013074;28;20601;-80
2020/12/08 02:53:20;;;;;;;23.33;12.35;;;-0.30;99.90;;;0.31;94.91;99325.09;5013025;28;20033;-79
2020/12/08 02:55:48;;;;;;;21.02;12.45;;;-0.30;99.90;;;0.27;94.56;99324.09;5013306;28;20462;-79
2020/12/08 02:58:16;;;;;;;21.05;11.43;;;-0.30;99.90;;;0.23;94.80;99323.94;5014380;28;20125;-79
2020/12/08 03:00:42;;;;;;;22.33;12.32;;;-0.30;99.90;;;0.21;95.02;99325.41;5013549;28;20072;-80
2020/12/08 03:03:08;;;;;;;21.85;12.40;;;-0.40;99.90;;;0.20;95.04;99326.50;4995796;28;20547;-77
2020/12/08 03:05:34;;;;;;;20.50;11.77;;;-0.40;99.90;;;0.15;94.97;99333.00;4995987;28;20092;-80
2020/12/08 03:08:00;;;;;;;20.55;11.52;;;-0.40;99.90;;;0.11;94.94;99328.44;4996536;28;20030;-79
2020/12/08 03:10:26;;;;;;;18.60;10.93;;;-0.40;99.90;;;0.09;95.42;99326.03;5013605;28;20394;-79
2020/12/08 03:12:52;;;;;;;21.63;11.65;;;-0.50;99.90;;;0.14;95.43;99331.38;5013273;28;20033;-78
2020/12/08 03:15:19;;;;;;;20.95;11.85;;;-0.50;99.90;;;0.20;95.47;99332.00;5012286;28;20091;-79
2020/12/08 03:17:47;;;;;;;27.58;13.88;;;-0.40;99.90;;;0.33;95.65;99329.13;5013545;28;20037;-79
2020/12/08 03:20:13;;;;;;;23.77;14.38;;;-0.30;99.90;;;0.44;95.44;99319.44;5012046;28;20413;-81
2020/12/08 03:22:40;;;;;;;26.77;14.32;;;-0.20;99.90;;;0.59;95.40;99323.63;4995917;28;20034;-81
2020/12/08 03:25:07;;;;;;;20.85;12.35;;;-0.10;99.90;;;0.66;95.39;99334.94;5013757;28;20034;-78
2020/12/08 03:27:33;;;;;;;23.70;13.40;;;-0.10;99.90;;;0.64;95.47;99319.91;5013330;28;20026;-80
2020/12/08 03:29:59;;;;;;;25.80;13.80;;;0.00;99.90;;;0.66;95.54;99320.38;5013615;28;20030;-82
2020/12/08 03:32:25;;;;;;;22.80;13.40;;;0.00;99.90;;;0.68;95.30;99320.84;5013296;28;20112;-77
2020/12/08 03:34:53;;;;;;;22.00;12.05;;;0.00;99.90;;;0.67;95.35;99324.75;5013670;28;20034;-78
2020/12/08 03:37:19;;;;;;;21.80;13.25;;;0.00;99.90;;;0.68;95.28;99329.09;5013942;28;20037;-82
2020/12/08 03:39:45;;;;;;;18.75;10.90;;;0.00;99.90;;;0.50;94.80;99320.06;4996448;28;20448;-79
2020/12/08 03:42:11;;;;;;;22.05;11.82;;;-0.10;99.90;;;0.38;94.85;99317.19;5026042;28;20098;-82
2020/12/08 03:44:39;;;;;;;19.17;11.40;;;-0.20;99.90;;;0.27;95.04;99322.16;5020880;28;20092;-80
2020/12/08 03:47:05;;;;;;;22.45;12.35;;;-0.30;99.90;;;0.25;95.34;99320.88;5013488;28;20106;-79
2020/12/08 03:49:31;;;;;;;22.38;12.68;;;-0.30;99.90;;;0.27;95.39;99311.19;4994681;28;20164;-80
2020/12/08 03:51:58;;;;;;;26.27;13.65;;;-0.30;99.90;;;0.33;95.61;99309.88;5012480;28;20033;-80
2020/12/08 03:54:24;;;;;;;27.98;15.15;;;-0.30;99.90;;;0.47;95.78;99327.03;5011824;28;20470;-79
2020/12/08 03:57:03;;;;;;;26.63;12.82;;;-0.20;99.90;;;0.51;95.36;99325.22;5013553;28;20069;-78
2020/12/08 03:59:28;;;;;;;18.55;11.57;;;-0.20;99.90;;;0.56;95.54;99328.94;5016925;28;20073;-78
2020/12/08 04:01:54;;;;;;;23.98;12.52;;;-0.10;99.90;;;0.56;95.58;99317.97;4999018;28;20065;-80
2020/12/08 04:04:20;;;;;;;22.27;12.93;;;-0.10;99.90;;;0.65;95.57;99316.81;5016448;28;20030;-79
2020/12/08 04:06:47;;;;;;;27.08;14.32;;;0.00;99.90;;;0.78;95.55;99320.53;5016067;28;20029;-80
2020/12/08 04:09:15;;;;;;;27.45;15.50;;;0.10;99.90;;;0.94;95.54;99325.19;4989202;28;20030;-80
2020/12/08 04:11:41;;;;;;;22.90;13.55;;;0.20;99.90;;;0.93;95.05;99320.81;5016659;28;20037;-79
2020/12/08 04:14:07;;;;;;;21.50;12.52;;;0.20;99.90;;;0.95;95.46;99326.81;4999055;28;20065;-77
2020/12/08 04:16:37;;;;;;;26.13;13.77;;;0.20;99.90;;;0.99;95.32;99332.47;4998952;28;20554;-76
2020/12/08 04:19:03;;;;;;;26.60;15.68;;;0.30;99.90;;;0.99;95.40;99330.53;5016722;28;20030;-80
2020/12/08 04:21:30;;;;;;;29.23;16.63;;;0.30;99.90;;;1.05;95.64;99331.16;5016195;28;20113;-80
2020/12/08 04:24:00;;;;;;;25.70;15.05;;;0.30;99.90;;;1.16;95.49;99337.91;5016650;28;20065;-80
2020/12/08 04:26:33;;;;;;;31.35;16.90;;;0.40;99.90;;;1.26;95.88;99328.50;4999227;28;20402;-80
2020/12/08 04:29:00;;;;;;;28.75;16.25;;;0.50;99.90;;;1.37;95.31;99338.03;4999188;28;20026;-78
2020/12/08 04:31:28;;;;;;;28.63;15.90;;;0.60;99.90;;;1.35;95.46;99332.06;5015405;28;20220;-77
2020/12/08 04:33:55;;;;;;;24.52;15.32;;;0.60;99.90;;;1.40;95.50;99338.16;4999255;28;20040;-79
2020/12/08 04:36:26;;;;;;;25.92;15.00;;;0.70;99.90;;;1.42;95.38;99337.81;5016887;28;20113;-80
2020/12/08 04:38:52;;;;;;;29.48;14.98;;;0.70;99.90;;;1.44;95.30;99339.13;5016714;28;20096;-78
2020/12/08 04:41:24;;;;;;;22.70;13.20;;;0.70;99.90;;;1.46;95.28;99342.34;5016764;28;20112;-78
2020/12/08 04:43:53;;;;;;;25.40;13.80;;;0.70;99.90;;;1.48;95.59;99339.25;5015288;28;20087;-79
2020/12/08 04:46:21;;;;;;;27.50;14.65;;;0.80;99.90;;;1.54;95.49;99343.47;4998917;28;20038;-80
2020/12/08 04:48:50;;;;;;;28.83;15.80;;;0.80;99.90;;;1.54;95.22;99354.47;4998719;28;20025;-78
2020/12/08 04:51:17;;;;;;;27.15;14.07;;;0.80;99.90;;;1.56;95.75;99354.94;4997978;28;20155;-81
2020/12/08 04:53:46;;;;;;;28.50;15.30;;;0.80;99.90;;;1.56;95.29;99341.19;4992655;28;20034;-80
2020/12/08 04:56:13;;;;;;;27.23;15.05;;;0.90;99.90;;;1.61;95.33;99346.50;4997073;28;20030;-80
2020/12/08 04:58:43;;;;;;;26.08;14.55;;;0.90;99.90;;;1.64;95.60;99343.06;5002693;28;20034;-80
2020/12/08 05:01:25;;;;;;;23.90;13.60;;;0.90;99.90;;;1.67;95.41;99347.91;5017237;28;20041;-80
2020/12/08 05:04:02;;;;;;;25.38;13.75;;;0.90;99.90;;;1.66;95.40;99351.81;5016677;28;20041;-80
2020/12/08 05:06:30;;;;;;;23.80;13.88;;;0.90;99.90;;;1.67;95.37;99350.66;5016376;28;20034;-80
2020/12/08 05:09:08;;;;;;;27.60;14.43;;;0.90;99.90;;;1.69;95.26;99345.66;4997242;28;20505;-78
2020/12/08 05:11:35;;;;;;;27.83;14.43;;;1.00;99.90;;;1.69;95.45;99345.66;5015095;28;20494;-79
2020/12/08 05:14:06;;;;;;;24.27;13.57;;;1.00;99.90;;;1.65;95.57;99346.63;4997090;28;20049;-80
2020/12/08 05:16:34;;;;;;;21.13;12.50;;;1.00;99.90;;;1.62;95.27;99350.88;4998352;28;20060;-79
2020/12/08 05:19:11;;;;;;;23.42;13.55;;;0.90;99.90;;;1.67;95.18;99355.38;5016670;28;20101;-78
2020/12/08 05:21:51;;;;;;;24.98;14.38;;;0.90;99.90;;;1.72;95.61;99350.50;4998663;28;20485;-77
2020/12/08 05:24:31;;;;;;;24.17;14.27;;;1.00;99.90;;;1.74;95.46;99341.91;5015846;28;20117;-78
2020/12/08 05:27:24;;;;;;;24.85;14.18;;;1.00;99.90;;;1.73;95.50;99349.38;5016428;28;20026;-77
2020/12/08 05:29:51;;;;;;;26.70;14.48;;;1.00;99.90;;;1.75;95.33;99352.59;5015748;28;20036;-80
2020/12/08 05:32:35;;;;;;;28.35;15.70;;;1.00;99.90;;;1.89;95.65;99352.38;4998828;28;20358;-80
2020/12/08 05:35:13;;;;;;;29.67;15.45;;;1.10;99.90;;;1.97;95.25;99351.50;5015901;28;20034;-81
2020/12/08 05:37:46;;;;;;;31.70;16.25;;;1.20;99.90;;;1.98;95.17;99353.13;5015880;28;20065;-80
2020/12/08 05:40:16;;;;;;;23.40;13.20;;;1.30;99.90;;;1.99;94.88;99355.53;4997794;28;20103;-79
2020/12/08 05:42:48;;;;;;;24.83;14.82;;;1.20;99.90;;;1.92;94.72;99359.97;4997614;28;20080;-81
2020/12/08 05:45:22;;;;;;;24.25;14.85;;;1.20;99.90;;;1.88;95.21;99359.00;5015438;28;20034;-80
2020/12/08 05:47:58;;;;;;;27.23;15.45;;;1.20;99.90;;;1.94;94.91;99364.00;5013857;28;20033;-78
2020/12/08 05:50:27;;;;;;;25.73;14.20;;;1.20;99.90;;;1.91;95.02;99358.34;5015747;28;20026;-80
2020/12/08 05:53:02;;;;;;;26.40;15.52;;;1.20;99.90;;;1.90;94.73;99353.97;4997986;28;20038;-80
2020/12/08 05:55:33;;;;;;;32.30;17.05;;;1.20;99.90;;;2.07;95.12;99364.88;5005540;28;20034;-82
2020/12/08 05:58:10;;;;;;;26.90;14.77;;;1.30;99.90;;;2.08;94.96;99375.59;5002535;28;20053;-80
2020/12/08 06:00:38;;;;;;;24.02;14.25;;;1.30;99.90;;;2.07;95.08;99365.69;5004024;28;20037;-81
2020/12/08 06:03:13;;;;;;;26.83;15.38;;;1.30;99.90;;;2.08;95.05;99358.25;4980923;28;20207;-81
2020/12/08 06:05:43;;;;;;;30.95;15.55;;;1.40;99.90;;;2.09;94.94;99366.16;4995480;28;20044;-81
2020/12/08 06:08:24;;;;;;;24.52;14.57;;;1.40;99.90;;;2.07;95.14;99373.97;4978643;28;20026;-82
2020/12/08 06:10:55;;;;;;;21.48;12.50;;;1.30;99.90;;;2.00;95.24;99368.16;5000052;28;20026;-80
2020/12/08 06:13:34;;;;;;;20.45;12.88;;;1.30;99.90;;;1.96;95.29;99371.91;5012812;28;20028;-81
2020/12/08 06:16:20;;;;;;;30.13;14.50;;;1.20;99.90;;;1.93;95.10;99367.06;4995748;28;20034;-81
2020/12/08 06:18:52;;;;;;;29.80;15.60;;;1.20;99.90;;;1.96;95.33;99366.41;5008101;28;20030;-81
2020/12/08 06:21:28;;;;;;;31.60;17.05;;;1.20;99.90;;;2.04;95.15;99368.31;5012329;28;20022;-81
2020/12/08 06:24:02;;;;;;;24.02;14.55;;;1.30;99.90;;;1.98;94.53;99370.47;4989262;28;20042;-81
2020/12/08 06:26:36;;;;;;;21.65;12.57;;;1.20;99.90;;;1.90;94.98;99364.97;4971449;28;20301;-81
2020/12/08 06:29:10;;;;;;;21.05;12.35;;;1.20;99.90;;;1.84;94.91;99366.31;5016179;28;20113;-82
2020/12/08 06:31:45;;;;;;;22.25;12.75;;;1.20;99.90;;;1.87;95.23;99376.66;5015889;28;20030;-81
2020/12/08 06:34:31;;;;;;;26.50;14.03;;;1.10;99.90;;;1.83;94.97;99376.50;5016407;28;20389;-82
2020/12/08 06:37:08;;;;;;;34.25;16.88;;;1.20;99.90;;;1.90;95.39;99390.56;4996900;28;20030;-79
2020/12/08 06:39:34;;;;;;;28.83;16.13;;;1.20;99.90;;;1.93;95.09;99381.63;5014249;28;20038;-83
2020/12/08 06:42:13;;;;;;;28.98;16.30;;;1.20;99.90;;;2.00;95.04;99386.63;4998199;28;20036;-81
2020/12/08 06:44:39;;;;;;;31.27;16.25;;;1.30;99.90;;;2.00;95.06;99379.19;4997529;28;20406;-79
2020/12/08 06:47:06;;;;;;;27.40;14.38;;;1.30;99.90;;;2.11;95.27;99390.63;5014950;28;20045;-79
2020/12/08 06:49:38;;;;;;;27.85;14.60;;;1.30;99.90;;;2.15;95.46;99388.03;5013654;28;20032;-80
2020/12/08 06:52:09;;;;;;;26.98;15.48;;;1.40;99.90;;;2.23;95.40;99390.72;5014212;28;20021;-79
2020/12/08 06:54:35;;;;;;;32.30;16.42;;;1.50;99.90;;;2.27;95.27;99388.09;5013391;28;20064;-79
2020/12/08 06:57:05;;;;;;;26.60;15.82;;;1.50;99.90;;;2.34;95.15;99391.16;4996607;28;20025;-80
2020/12/08 06:59:30;;;;;;;30.52;16.25;;;1.50;99.90;;;2.37;95.44;99390.47;5014314;28;20037;-82
2020/12/08 07:01:58;;;;;;;33.83;17.15;;;1.60;99.90;;;2.38;95.28;99384.63;5013882;28;20050;-82
2020/12/08 07:04:29;;;;;;;29.42;15.90;;;1.60;99.90;;;2.40;95.53;99398.88;5013035;28;20034;-79
2020/12/08 07:06:59;;;;;;;28.63;16.52;;;1.60;99.90;;;2.40;95.81;99393.38;5014367;28;20041;-79
2020/12/08 07:09:32;;;;;;;30.15;15.60;;;1.70;99.90;;;2.36;95.40;99392.41;5013627;28;20540;-82
2020/12/08 07:12:05;;;;;;;28.75;15.38;;;1.60;99.90;;;2.32;95.12;99391.47;5015489;28;20038;-83
2020/12/08 07:14:31;;;;;;;27.48;14.88;;;1.60;99.90;;;2.34;95.57;99404.91;5013424;28;20084;-81
2020/12/08 07:16:57;;;;;;;30.73;16.98;;;1.60;99.90;;;2.36;95.33;99403.44;4996082;28;20029;-82
2020/12/08 07:19:23;;;;;;;27.65;16.95;;;1.60;99.90;;;2.34;95.15;99405.72;5012556;28;20034;-82
2020/12/08 07:22:01;;;;;;;31.42;17.35;;;1.60;99.90;;;2.38;95.47;99409.41;4996525;28;20053;-82
2020/12/08 07:24:30;;;;;;;33.83;18.23;;;1.60;99.90;;;2.41;95.16;99410.72;4995493;28;20379;-80
2020/12/08 07:27:01;;;;;;;27.85;16.23;;;1.70;99.90;;;2.36;94.96;99414.47;4996504;28;20125;-80
2020/12/08 07:29:28;;;;;;;25.17;15.68;;;1.60;99.90;;;2.37;95.38;99423.53;4995917;28;20033;-82
2020/12/08 07:31:53;;;;;;;29.55;16.38;;;1.60;99.90;;;2.35;95.25;99417.53;4997172;28;20030;-80
2020/12/08 07:34:19;;;;;;;31.25;16.65;;;1.60;99.90;;;2.35;95.15;99418.34;5000190;28;20041;-80
2020/12/08 07:36:45;;;;;;;32.47;17.38;;;1.60;99.90;;;2.37;95.10;99413.34;5000284;28;20061;-80
2020/12/08 07:39:20;;;;;;;30.48;17.48;;;1.60;99.90;;;2.43;95.57;99417.50;5018163;28;20026;-80
2020/12/08 07:41:46;;;;;;;28.73;17.00;;;1.70;99.90;;;2.48;95.70;99416.47;5017406;28;20088;-82
2020/12/08 07:44:17;;;;;;;31.60;18.65;;;1.70;99.90;;;2.55;95.33;99419.53;4999602;28;20072;-81
2020/12/08 07:46:51;;;;;;;32.42;17.52;;;1.70;99.90;;;2.59;95.78;99421.28;4999853;28;20017;-78
2020/12/08 07:49:18;;;;;;;32.75;16.40;;;1.80;99.90;;;2.48;94.64;99409.03;5016489;28;20045;-79
2020/12/08 07:51:50;;;;;;;25.02;14.43;;;1.70;99.90;;;2.43;95.16;99420.25;5000915;28;20076;-81
2020/12/08 07:54:19;;;;;;;28.98;15.70;;;1.60;99.90;;;2.34;95.29;99416.75;5001497;28;20052;-81
2020/12/08 07:56:46;;;;;;;27.10;15.30;;;1.70;99.90;;;2.41;95.47;99418.97;5005623;28;20521;-83
2020/12/08 07:59:12;;;;;;;29.38;17.10;;;1.70;99.90;;;2.43;95.35;99423.00;5006674;28;20026;-80
2020/12/08 08:01:44;;;;;;;31.45;17.38;;;1.80;99.90;;;2.47;95.71;99404.66;5006279;28;20494;-82
2020/12/08 08:04:25;;;;;;;26.85;16.00;;;1.80;99.90;;;2.55;95.25;99425.84;5012091;28;20035;-80
2020/12/08 08:06:54;;;;;;;31.63;16.98;;;1.80;99.90;;;2.66;95.66;99432.56;4985080;28;20027;-81
2020/12/08 08:09:21;;;;;;;28.67;15.98;;;1.90;99.90;;;2.65;95.60;99422.69;5022587;28;20026;-82
2020/12/08 08:11:47;;;;;;;26.33;15.18;;;1.90;99.90;;;2.74;95.39;99430.09;5003519;28;20375;-82
2020/12/08 08:14:13;;;;;;;33.03;17.85;;;2.00;99.90;;;2.78;95.43;99426.34;5029812;28;20024;-79
2020/12/08 08:16:39;;;;;;;31.50;17.63;;;2.00;99.90;;;2.87;95.36;99431.78;5036720;28;20041;-81
2020/12/08 08:19:06;;;;;;;33.13;18.23;;;2.10;99.90;;;2.96;95.08;99433.31;4997492;28;20049;-83
2020/12/08 08:21:32;;;;;;;27.15;14.82;;;2.20;99.90;;;2.95;95.58;99436.44;5021159;28;20037;-81
2020/12/08 08:23:59;;;;;;;22.33;14.35;;;2.20;99.90;;;2.97;95.24;99443.22;5023643;28;20033;-81
2020/12/08 08:26:26;;;;;;;28.75;16.48;;;2.20;99.90;;;3.01;95.00;99443.34;5002686;28;20030;-82
2020/12/08 08:28:53;;;;;;;27.30;15.57;;;2.20;99.90;;;3.02;95.01;99431.97;5000353;28;20057;-80
2020/12/08 08:31:19;;;;;;;28.92;16.42;;;2.30;99.90;;;3.13;95.46;99438.69;4995994;28;20072;-81
2020/12/08 08:33:45;;;;;;;30.98;17.02;;;2.30;99.90;;;3.18;94.89;99424.69;4997870;28;20045;-81
2020/12/08 08:36:14;;;;;;;30.08;17.48;;;2.40;99.90;;;3.27;95.15;99430.13;4980482;28;20034;-83
2020/12/08 08:38:43;;;;;;;28.52;16.65;;;2.40;99.90;;;3.25;94.72;99428.84;4986615;28;20034;-82
2020/12/08 08:41:10;;;;;;;25.70;15.13;;;2.40;99.90;;;3.22;95.04;99426.75;4994960;28;20036;-79
2020/12/08 08:43:36;;;;;;;26.80;14.90;;;2.40;99.90;;;3.23;94.97;99440.22;5002326;28;20096;-81
2020/12/08 08:46:02;;;;;;;26.17;15.77;;;2.40;99.90;;;3.23;94.96;99425.63;5012197;28;20451;-82
2020/12/08 08:48:28;;;;;;;26.23;16.88;;;2.40;99.90;;;3.29;94.77;99436.13;4994425;28;20030;-82
2020/12/08 08:50:58;;;;;;;33.28;17.55;;;2.50;99.90;;;3.33;95.09;99439.81;4994327;28;20037;-82
2020/12/08 08:53:24;;;;;;;25.35;16.02;;;2.50;99.90;;;3.39;95.04;99437.63;5003287;28;20035;-80
2020/12/08 08:55:50;;;;;;;24.77;16.17;;;2.60;99.90;;;3.36;94.48;99441.09;5013415;28;20038;-80
2020/12/08 08:58:17;;;;;;;25.33;14.90;;;2.70;99.90;;;3.38;94.55;99438.78;4993866;28;20049;-81
2020/12/08 09:00:43;;;;;;;26.38;15.63;;;2.60;99.90;;;3.38;94.73;99447.88;4986431;28;20036;-81
2020/12/08 09:03:09;;;;;;;25.25;15.93;;;2.60;99.90;;;3.42;94.40;99451.56;4981498;28;20498;-80
2020/12/08 09:05:37;;;;;;;30.35;18.25;;;2.60;99.90;;;3.49;94.90;99453.78;4991808;28;20421;-82
2020/12/08 09:08:03;;;;;;;27.63;17.20;;;2.60;99.90;;;3.53;94.29;99461.03;5008023;28;20018;-81
2020/12/08 09:10:30;;;;;;;34.30;17.77;;;2.70;99.90;;;3.52;94.47;99461.38;5017587;28;20105;-82
2020/12/08 09:12:56;;;;;;;27.25;16.10;;;2.70;99.90;;;3.55;94.50;99467.03;5016852;28;20041;-80
2020/12/08 09:15:22;;;;;;;39.90;23.02;;;2.70;99.90;;;3.64;94.55;99466.94;4998962;28;20030;-80
2020/12/08 09:17:48;;;;;;;31.75;19.42;;;2.80;99.90;;;3.64;94.65;99461.41;4999126;28;20033;-79
2020/12/08 09:20:15;;;;;;;27.85;17.48;;;2.80;99.90;;;3.66;94.41;99465.44;4999288;28;20022;-79
2020/12/08 09:22:41;;;;;;;29.40;17.42;;;2.80;99.90;;;3.69;94.41;99473.03;5015207;28;20038;-81
2020/12/08 09:25:09;;;;;;;32.67;18.73;;;2.90;99.90;;;3.69;94.67;99473.03;4999143;28;20085;-79
2020/12/08 09:27:35;;;;;;;33.65;18.13;;;2.90;99.90;;;3.71;94.28;99468.00;4997231;28;20041;-80
2020/12/08 09:30:01;;;;;;;32.38;19.92;;;2.90;99.90;;;3.71;94.51;99465.25;5008042;28;20101;-79
2020/12/08 09:32:27;;;;;;;49.33;27.77;;;2.90;99.90;;;3.79;94.46;99466.28;5000024;28;20103;-81
2020/12/08 09:34:53;;;;;;;38.75;23.35;;;3.00;99.90;;;3.80;93.71;99478.13;5009933;28;20030;-81
2020/12/08 09:37:19;;;;;;;43.63;24.75;;;3.00;99.90;;;3.81;94.07;99482.53;4993132;28;20145;-82
2020/12/08 09:39:46;;;;;;;41.67;23.48;;;3.00;99.90;;;3.82;94.09;99479.41;5001676;28;20346;-82
2020/12/08 09:42:12;;;;;;;42.75;22.92;;;3.00;99.90;;;3.84;93.90;99476.31;5003295;28;20022;-83
2020/12/08 09:44:38;;;;;;;37.28;22.13;;;3.10;99.90;;;3.89;94.32;99476.06;4999440;28;20328;-82
2020/12/08 09:47:04;;;;;;;40.35;21.70;;;3.10;99.90;;;3.92;94.32;99469.88;4990110;28;20037;-79
2020/12/08 09:49:30;;;;;;;36.90;21.45;;;3.10;99.90;;;3.97;93.69;99469.66;5002314;28;20028;-78
2020/12/08 09:51:57;;;;;;;34.92;20.30;;;3.20;99.90;;;3.99;93.96;99472.88;4992716;28;20064;-81
2020/12/08 09:54:23;;;;;;;36.38;20.80;;;3.20;99.90;;;4.03;94.10;99477.38;4993759;28;20030;-82
2020/12/08 09:56:49;;;;;;;41.28;23.42;;;3.20;99.90;;;4.08;93.90;99468.88;4990239;28;20045;-81
2020/12/08 09:59:14;;;;;;;38.38;23.45;;;3.30;99.90;;;4.16;93.37;99478.22;4986010;28;20072;-82
2020/12/08 10:01:40;;;;;;;47.67;27.35;;;3.30;99.90;;;4.22;93.23;99474.88;5007834;28;20041;-80
2020/12/08 10:04:07;;;;;;;45.13;26.23;;;3.40;99.90;;;4.22;93.73;99472.13;5009014;28;20118;-78
2020/12/08 10:06:33;;;;;;;41.25;24.50;;;3.40;99.90;;;4.29;93.42;99481.78;4998840;28;20010;-81
2020/12/08 10:09:00;;;;;;;40.38;25.15;;;3.40;99.90;;;4.29;93.46;99463.25;4996052;28;20033;-80
2020/12/08 10:11:29;;;;;;;40.90;26.58;;;3.50;99.90;;;4.34;93.02;99463.00;5001151;28;20090;-81
2020/12/08 10:13:55;;;;;;;40.40;23.83;;;3.50;99.90;;;4.37;92.76;99461.50;5026903;28;20041;-78
2020/12/08 10:16:25;;;;;;;41.10;23.55;;;3.60;99.90;;;4.41;92.43;99468.78;5015444;28;20157;-82
2020/12/08 10:18:53;;;;;;;38.42;23.33;;;3.60;99.90;;;4.43;91.90;99465.69;4983641;28;20089;-83
2020/12/08 10:21:24;;;;;;;36.28;21.85;;;3.60;99.90;;;4.48;91.79;99470.97;4981627;28;20027;-82
2020/12/08 10:23:52;;;;;;;51.17;21.55;;;3.60;99.90;;;4.54;92.00;99478.69;4999891;28;20501;-82